createdAt,value
2016-08-08T00:01:03.619Z,1014.57
2016-08-08T00:02:16.593Z,1014.54
2016-08-08T00:03:29.562Z,1014.56
2016-08-08T00:04:42.535Z,1014.49
2016-08-08T00:05:55.512Z,1014.46
2016-08-08T00:07:08.487Z,1014.46
2016-08-08T00:08:21.460Z,1014.4
2016-08-08T00:09:34.634Z,1014.37
2016-08-08T00:10:47.606Z,1014.39
2016-08-08T00:12:00.591Z,1014.33
2016-08-08T00:13:13.571Z,1014.4
2016-08-08T00:14:26.555Z,1014.36
2016-08-08T00:15:39.738Z,1014.35
2016-08-08T00:16:52.919Z,1014.29
2016-08-08T00:18:05.898Z,1014.3
2016-08-08T00:19:19.072Z,1014.29
2016-08-08T00:20:32.056Z,1014.23
2016-08-08T00:21:45.033Z,1014.21
2016-08-08T00:22:58.219Z,1014.18
2016-08-08T00:24:11.198Z,1014.18
2016-08-08T00:25:24.167Z,1014.12
2016-08-08T00:27:48.925Z,1014.12
2016-08-08T00:29:01.892Z,1014.07
2016-08-08T00:30:14.858Z,1014.09
2016-08-08T00:31:27.828Z,1014.06
2016-08-08T00:32:40.800Z,1014.07
2016-08-08T00:33:53.777Z,1014.02
2016-08-08T00:35:06.943Z,1014
2016-08-08T00:36:20.119Z,1014.04
2016-08-08T00:37:33.287Z,1014.02
2016-08-08T00:38:46.277Z,1013.95
2016-08-08T00:39:59.458Z,1013.93
2016-08-08T00:41:12.426Z,1013.95
2016-08-08T00:42:25.392Z,1013.93
2016-08-08T00:43:38.366Z,1013.91
2016-08-08T00:44:51.352Z,1013.9
2016-08-08T00:46:04.329Z,1013.91
2016-08-08T00:47:17.311Z,1013.92
2016-08-08T00:48:30.281Z,1013.93
2016-08-08T00:49:43.259Z,1013.94
2016-08-08T00:50:56.234Z,1013.96
2016-08-08T00:52:09.205Z,1013.9
2016-08-08T00:53:22.173Z,1013.93
2016-08-08T00:54:35.152Z,1013.91
2016-08-08T00:55:48.535Z,1013.92
2016-08-08T00:57:01.508Z,1013.88
2016-08-08T00:58:14.489Z,1013.91
2016-08-08T00:59:27.467Z,1013.9
2016-08-08T01:00:40.441Z,1013.9
2016-08-08T01:01:53.618Z,1013.87
2016-08-08T01:03:06.602Z,1013.86
2016-08-08T01:04:19.571Z,1013.86
2016-08-08T01:05:32.550Z,1013.81
2016-08-08T01:06:45.533Z,1013.79
2016-08-08T01:07:58.511Z,1013.73
2016-08-08T01:09:11.491Z,1013.77
2016-08-08T01:10:24.473Z,1013.76
2016-08-08T01:12:49.041Z,1013.77
2016-08-08T01:14:02.016Z,1013.75
2016-08-08T01:15:15.185Z,1013.76
2016-08-08T01:16:28.148Z,1013.75
2016-08-08T01:17:41.130Z,1013.69
2016-08-08T01:18:54.307Z,1013.68
2016-08-08T01:20:07.285Z,1013.7
2016-08-08T01:21:20.271Z,1013.7
2016-08-08T01:22:33.256Z,1013.71
2016-08-08T01:23:46.229Z,1013.77
2016-08-08T01:24:59.217Z,1013.7
2016-08-08T01:26:12.195Z,1013.74
2016-08-08T01:27:25.570Z,1013.75
2016-08-08T01:28:38.549Z,1013.7
2016-08-08T01:29:51.518Z,1013.67
2016-08-08T01:31:04.493Z,1013.67
2016-08-08T01:32:17.668Z,1013.62
2016-08-08T01:33:30.641Z,1013.62
2016-08-08T01:34:43.811Z,1013.59
2016-08-08T01:35:56.786Z,1013.6
2016-08-08T01:37:09.760Z,1013.57
2016-08-08T01:38:22.730Z,1013.56
2016-08-08T01:39:35.707Z,1013.56
2016-08-08T01:40:48.695Z,1013.53
2016-08-08T01:42:01.667Z,1013.54
2016-08-08T01:43:14.640Z,1013.52
2016-08-08T01:44:27.603Z,1013.47
2016-08-08T01:45:40.572Z,1013.52
2016-08-08T01:46:53.548Z,1013.52
2016-08-08T01:48:06.528Z,1013.54
2016-08-08T01:49:19.494Z,1013.48
2016-08-08T01:50:32.469Z,1013.47
2016-08-08T01:51:45.653Z,1013.46
2016-08-08T01:52:58.631Z,1013.46
2016-08-08T01:54:11.816Z,1013.47
2016-08-08T01:55:24.790Z,1013.48
2016-08-08T01:56:37.763Z,1013.43
2016-08-08T01:57:50.273Z,1013.5
2016-08-08T01:59:03.449Z,1013.45
2016-08-08T02:00:16.417Z,1013.37
2016-08-08T02:01:29.384Z,1013.38
2016-08-08T02:02:42.364Z,1013.27
2016-08-08T02:03:55.347Z,1013.24
2016-08-08T02:05:08.310Z,1013.24
2016-08-08T02:06:21.287Z,1013.3
2016-08-08T02:07:34.256Z,1013.32
2016-08-08T02:08:47.237Z,1013.38
2016-08-08T02:10:00.210Z,1013.4
2016-08-08T02:11:13.180Z,1013.36
2016-08-08T02:12:26.358Z,1013.41
2016-08-08T02:13:39.319Z,1013.4
2016-08-08T02:14:52.301Z,1013.41
2016-08-08T02:16:05.285Z,1013.45
2016-08-08T02:17:18.267Z,1013.38
2016-08-08T02:18:31.251Z,1013.42
2016-08-08T02:19:44.248Z,1013.38
2016-08-08T02:20:57.224Z,1013.32
2016-08-08T02:22:10.188Z,1013.28
2016-08-08T02:23:23.158Z,1013.31
2016-08-08T02:24:36.133Z,1013.26
2016-08-08T02:25:49.117Z,1013.24
2016-08-08T02:28:14.599Z,1013.29
2016-08-08T02:29:27.778Z,1013.29
2016-08-08T02:30:40.746Z,1013.22
2016-08-08T02:31:53.730Z,1013.24
2016-08-08T02:33:06.703Z,1013.25
2016-08-08T02:34:19.875Z,1013.28
2016-08-08T02:35:32.847Z,1013.26
2016-08-08T02:36:45.825Z,1013.27
2016-08-08T02:37:58.807Z,1013.21
2016-08-08T02:39:11.772Z,1013.27
2016-08-08T02:40:24.735Z,1013.19
2016-08-08T02:41:37.700Z,1013.2
2016-08-08T02:42:50.671Z,1013.22
2016-08-08T02:44:03.645Z,1013.3
2016-08-08T02:45:16.620Z,1013.31
2016-08-08T02:46:29.610Z,1013.29
2016-08-08T02:47:42.586Z,1013.3
2016-08-08T02:48:55.555Z,1013.3
2016-08-08T02:50:08.539Z,1013.28
2016-08-08T02:51:21.526Z,1013.29
2016-08-08T02:52:34.705Z,1013.32
2016-08-08T02:53:47.672Z,1013.29
2016-08-08T02:55:00.635Z,1013.33
2016-08-08T02:56:13.608Z,1013.35
2016-08-08T02:57:26.781Z,1013.29
2016-08-08T02:58:39.757Z,1013.34
2016-08-08T02:59:52.738Z,1013.32
2016-08-08T03:01:05.719Z,1013.33
2016-08-08T03:02:18.691Z,1013.36
2016-08-08T03:03:31.667Z,1013.37
2016-08-08T03:04:44.641Z,1013.42
2016-08-08T03:05:57.623Z,1013.39
2016-08-08T03:07:10.594Z,1013.36
2016-08-08T03:08:23.562Z,1013.34
2016-08-08T03:09:36.533Z,1013.36
2016-08-08T03:10:49.501Z,1013.36
2016-08-08T03:12:02.476Z,1013.41
2016-08-08T03:13:14.984Z,1013.43
2016-08-08T03:14:27.959Z,1013.37
2016-08-08T03:15:40.955Z,1013.38
2016-08-08T03:16:53.936Z,1013.36
2016-08-08T03:18:06.901Z,1013.4
2016-08-08T03:19:19.873Z,1013.39
2016-08-08T03:20:32.840Z,1013.39
2016-08-08T03:21:45.804Z,1013.35
2016-08-08T03:22:58.780Z,1013.39
2016-08-08T03:24:11.751Z,1013.37
2016-08-08T03:25:24.920Z,1013.38
2016-08-08T03:26:37.904Z,1013.34
2016-08-08T03:27:50.866Z,1013.32
2016-08-08T03:29:03.835Z,1013.26
2016-08-08T03:30:17.016Z,1013.34
2016-08-08T03:31:30.016Z,1013.33
2016-08-08T03:32:42.989Z,1013.28
2016-08-08T03:33:55.955Z,1013.26
2016-08-08T03:35:08.935Z,1013.24
2016-08-08T03:36:22.116Z,1013.22
2016-08-08T03:37:35.082Z,1013.23
2016-08-08T03:38:48.064Z,1013.27
2016-08-08T03:40:01.249Z,1013.27
2016-08-08T03:41:14.217Z,1013.29
2016-08-08T03:43:39.247Z,1013.27
2016-08-08T03:44:52.417Z,1013.31
2016-08-08T03:46:05.415Z,1013.28
2016-08-08T03:47:18.402Z,1013.34
2016-08-08T03:48:31.576Z,1013.34
2016-08-08T03:49:44.764Z,1013.39
2016-08-08T03:50:57.934Z,1013.45
2016-08-08T03:52:11.102Z,1013.47
2016-08-08T03:53:24.278Z,1013.47
2016-08-08T03:54:37.256Z,1013.49
2016-08-08T03:55:50.827Z,1013.51
2016-08-08T03:57:03.796Z,1013.47
2016-08-08T03:58:16.768Z,1013.47
2016-08-08T03:59:29.751Z,1013.49
2016-08-08T04:00:42.923Z,1013.51
2016-08-08T04:01:56.297Z,1013.48
2016-08-08T04:03:09.466Z,1013.48
2016-08-08T04:04:22.450Z,1013.47
2016-08-08T04:05:35.414Z,1013.46
2016-08-08T04:06:48.396Z,1013.46
2016-08-08T04:08:01.371Z,1013.45
2016-08-08T04:09:14.559Z,1013.46
2016-08-08T04:10:27.534Z,1013.47
2016-08-08T04:11:40.506Z,1013.49
2016-08-08T04:12:53.676Z,1013.46
2016-08-08T04:14:06.637Z,1013.46
2016-08-08T04:15:19.608Z,1013.43
2016-08-08T04:16:32.585Z,1013.42
2016-08-08T04:17:45.568Z,1013.37
2016-08-08T04:18:58.541Z,1013.35
2016-08-08T04:20:11.513Z,1013.39
2016-08-08T04:21:24.485Z,1013.39
2016-08-08T04:22:37.461Z,1013.33
2016-08-08T04:23:50.442Z,1013.35
2016-08-08T04:25:03.414Z,1013.31
2016-08-08T04:26:16.390Z,1013.29
2016-08-08T04:28:41.350Z,1013.3
2016-08-08T04:29:54.319Z,1013.37
2016-08-08T04:31:07.294Z,1013.39
2016-08-08T04:32:20.266Z,1013.37
2016-08-08T04:33:33.257Z,1013.44
2016-08-08T04:34:46.233Z,1013.47
2016-08-08T04:35:59.408Z,1013.46
2016-08-08T04:37:12.423Z,1013.52
2016-08-08T04:38:25.384Z,1013.46
2016-08-08T04:39:38.356Z,1013.52
2016-08-08T04:40:51.322Z,1013.47
2016-08-08T04:42:04.311Z,1013.44
2016-08-08T04:43:17.275Z,1013.46
2016-08-08T04:44:30.258Z,1013.5
2016-08-08T04:45:43.231Z,1013.55
2016-08-08T04:46:56.206Z,1013.58
2016-08-08T04:48:09.398Z,1013.62
2016-08-08T04:49:22.363Z,1013.64
2016-08-08T04:50:35.339Z,1013.67
2016-08-08T04:51:48.307Z,1013.63
2016-08-08T04:53:01.286Z,1013.68
2016-08-08T04:54:14.459Z,1013.63
2016-08-08T04:55:27.430Z,1013.67
2016-08-08T04:56:40.394Z,1013.67
2016-08-08T04:57:53.370Z,1013.67
2016-08-08T04:59:06.340Z,1013.66
2016-08-08T05:00:19.317Z,1013.68
2016-08-08T05:01:32.297Z,1013.74
2016-08-08T05:02:45.266Z,1013.77
2016-08-08T05:03:58.233Z,1013.68
2016-08-08T05:05:11.401Z,1013.64
2016-08-08T05:06:24.579Z,1013.65
2016-08-08T05:07:37.568Z,1013.7
2016-08-08T05:08:50.561Z,1013.7
2016-08-08T05:10:03.525Z,1013.69
2016-08-08T05:11:16.706Z,1013.66
2016-08-08T05:13:40.803Z,1013.57
2016-08-08T05:14:53.780Z,1013.55
2016-08-08T05:16:06.751Z,1013.55
2016-08-08T05:17:19.720Z,1013.53
2016-08-08T05:18:32.695Z,1013.53
2016-08-08T05:19:45.669Z,1013.59
2016-08-08T05:20:58.646Z,1013.62
2016-08-08T05:22:11.627Z,1013.62
2016-08-08T05:23:24.595Z,1013.59
2016-08-08T05:24:37.783Z,1013.68
2016-08-08T05:25:50.749Z,1013.65
2016-08-08T05:27:03.933Z,1013.66
2016-08-08T05:28:16.906Z,1013.65
2016-08-08T05:29:29.876Z,1013.71
2016-08-08T05:30:42.848Z,1013.72
2016-08-08T05:31:56.013Z,1013.66
2016-08-08T05:33:08.988Z,1013.66
2016-08-08T05:34:22.163Z,1013.66
2016-08-08T05:35:35.340Z,1013.63
2016-08-08T05:36:48.309Z,1013.62
2016-08-08T05:38:01.481Z,1013.55
2016-08-08T05:39:14.652Z,1013.59
2016-08-08T05:40:27.624Z,1013.48
2016-08-08T05:41:40.601Z,1013.52
2016-08-08T05:42:53.571Z,1013.57
2016-08-08T05:44:06.760Z,1013.7
2016-08-08T05:45:19.942Z,1013.58
2016-08-08T05:46:32.916Z,1013.54
2016-08-08T05:47:45.885Z,1013.54
2016-08-08T05:48:58.859Z,1013.52
2016-08-08T05:50:11.844Z,1013.64
2016-08-08T05:51:24.810Z,1013.55
2016-08-08T05:52:37.787Z,1013.6
2016-08-08T05:53:50.757Z,1013.61
2016-08-08T05:55:03.732Z,1013.57
2016-08-08T05:56:16.696Z,1013.57
2016-08-08T05:57:29.676Z,1013.69
2016-08-08T05:58:42.650Z,1013.7
2016-08-08T05:59:55.629Z,1013.72
2016-08-08T06:01:08.602Z,1013.69
2016-08-08T06:02:21.778Z,1013.75
2016-08-08T06:03:34.749Z,1013.75
2016-08-08T06:04:47.718Z,1013.71
2016-08-08T06:06:00.691Z,1013.76
2016-08-08T06:07:13.655Z,1013.78
2016-08-08T06:08:26.631Z,1013.8
2016-08-08T06:09:39.598Z,1013.82
2016-08-08T06:10:52.626Z,1013.75
2016-08-08T06:12:05.598Z,1013.87
2016-08-08T06:13:18.589Z,1013.8
2016-08-08T06:14:31.564Z,1013.99
2016-08-08T06:15:44.557Z,1013.91
2016-08-08T06:16:57.530Z,1013.96
2016-08-08T06:18:10.720Z,1013.92
2016-08-08T06:19:23.700Z,1014.03
2016-08-08T06:20:36.669Z,1013.89
2016-08-08T06:21:49.647Z,1013.94
2016-08-08T06:23:02.626Z,1013.97
2016-08-08T06:24:15.587Z,1014.04
2016-08-08T06:25:28.775Z,1014.01
2016-08-08T06:26:41.747Z,1014.04
2016-08-08T06:29:06.759Z,1014.02
2016-08-08T06:30:19.733Z,1014.07
2016-08-08T06:31:32.705Z,1014.14
2016-08-08T06:32:45.881Z,1014.09
2016-08-08T06:33:58.868Z,1014.06
2016-08-08T06:35:11.846Z,1014.02
2016-08-08T06:36:24.829Z,1014.03
2016-08-08T06:37:37.791Z,1014.07
2016-08-08T06:38:50.751Z,1014.06
2016-08-08T06:40:03.729Z,1014.09
2016-08-08T06:41:16.691Z,1014.1
2016-08-08T06:42:29.657Z,1014.13
2016-08-08T06:43:42.635Z,1014.08
2016-08-08T06:44:55.803Z,1014.11
2016-08-08T06:46:08.779Z,1014.12
2016-08-08T06:47:21.759Z,1014.04
2016-08-08T06:48:34.745Z,1014.06
2016-08-08T06:49:47.708Z,1014.03
2016-08-08T06:51:00.683Z,1014.05
2016-08-08T06:52:13.660Z,1014.07
2016-08-08T06:53:26.629Z,1014.16
2016-08-08T06:54:39.604Z,1014.11
2016-08-08T06:55:52.573Z,1014.09
2016-08-08T06:57:05.545Z,1014.1
2016-08-08T06:58:18.539Z,1014.05
2016-08-08T06:59:31.509Z,1014.12
2016-08-08T07:00:44.484Z,1014.07
2016-08-08T07:01:57.664Z,1014.09
2016-08-08T07:03:10.641Z,1014.11
2016-08-08T07:04:23.820Z,1014.07
2016-08-08T07:05:36.787Z,1014.12
2016-08-08T07:06:49.766Z,1014.15
2016-08-08T07:08:02.751Z,1014.09
2016-08-08T07:09:15.717Z,1014.13
2016-08-08T07:10:28.694Z,1014.05
2016-08-08T07:11:41.660Z,1014.02
2016-08-08T07:12:54.638Z,1014.07
2016-08-08T07:14:06.219Z,1014.07
2016-08-08T07:15:19.191Z,1014.15
2016-08-08T07:16:32.172Z,1014.12
2016-08-08T07:17:45.175Z,1014.12
2016-08-08T07:18:58.161Z,1014.14
2016-08-08T07:20:11.148Z,1014.08
2016-08-08T07:21:24.541Z,1014.06
2016-08-08T07:22:37.515Z,1014.02
2016-08-08T07:23:50.492Z,1014.01
2016-08-08T07:25:03.666Z,1014.05
2016-08-08T07:26:16.630Z,1014.07
2016-08-08T07:27:29.812Z,1014.02
2016-08-08T07:28:42.795Z,1014.06
2016-08-08T07:29:55.772Z,1014.08
2016-08-08T07:31:08.760Z,1014.11
2016-08-08T07:32:21.725Z,1014.06
2016-08-08T07:33:34.715Z,1014.09
2016-08-08T07:34:47.694Z,1014.12
2016-08-08T07:36:00.667Z,1014.11
2016-08-08T07:37:13.641Z,1014.1
2016-08-08T07:38:26.817Z,1014.08
2016-08-08T07:39:39.791Z,1014.12
2016-08-08T07:40:52.778Z,1014.17
2016-08-08T07:42:05.952Z,1014.11
2016-08-08T07:44:30.257Z,1014.14
2016-08-08T07:45:43.230Z,1014.17
2016-08-08T07:46:56.211Z,1014.25
2016-08-08T07:48:09.182Z,1014.19
2016-08-08T07:49:22.166Z,1014.16
2016-08-08T07:50:35.146Z,1014.22
2016-08-08T07:51:48.120Z,1014.2
2016-08-08T07:53:01.103Z,1014.24
2016-08-08T07:54:14.074Z,1014.26
2016-08-08T07:55:27.052Z,1014.33
2016-08-08T07:56:40.031Z,1014.36
2016-08-08T07:57:53.000Z,1014.35
2016-08-08T07:59:05.976Z,1014.31
2016-08-08T08:00:18.994Z,1014.29
2016-08-08T08:01:32.171Z,1014.35
2016-08-08T08:02:45.544Z,1014.33
2016-08-08T08:03:58.522Z,1014.33
2016-08-08T08:05:11.495Z,1014.34
2016-08-08T08:06:24.464Z,1014.34
2016-08-08T08:07:37.433Z,1014.3
2016-08-08T08:08:50.414Z,1014.31
2016-08-08T08:10:03.395Z,1014.31
2016-08-08T08:11:16.378Z,1014.37
2016-08-08T08:12:29.355Z,1014.37
2016-08-08T08:13:42.335Z,1014.34
2016-08-08T08:14:55.315Z,1014.39
2016-08-08T08:16:08.506Z,1014.41
2016-08-08T08:17:21.478Z,1014.42
2016-08-08T08:18:34.455Z,1014.44
2016-08-08T08:19:47.634Z,1014.44
2016-08-08T08:21:00.611Z,1014.4
2016-08-08T08:22:13.583Z,1014.42
2016-08-08T08:23:26.559Z,1014.42
2016-08-08T08:24:39.733Z,1014.38
2016-08-08T08:25:52.950Z,1014.47
2016-08-08T08:27:06.031Z,1014.41
2016-08-08T08:29:30.139Z,1014.39
2016-08-08T08:30:43.307Z,1014.61
2016-08-08T08:31:56.490Z,1014.63
2016-08-08T08:33:09.462Z,1014.5
2016-08-08T08:34:22.638Z,1014.54
2016-08-08T08:35:35.611Z,1014.53
2016-08-08T08:36:48.796Z,1014.47
2016-08-08T08:38:01.778Z,1014.5
2016-08-08T08:39:14.763Z,1014.47
2016-08-08T08:40:27.944Z,1014.46
2016-08-08T08:41:40.930Z,1014.45
2016-08-08T08:42:53.908Z,1014.45
2016-08-08T08:44:07.080Z,1014.41
2016-08-08T08:45:20.256Z,1014.45
2016-08-08T08:46:33.228Z,1014.55
2016-08-08T08:47:46.195Z,1014.61
2016-08-08T08:48:59.175Z,1014.84
2016-08-08T08:50:12.148Z,1014.8
2016-08-08T08:51:25.131Z,1014.62
2016-08-08T08:52:38.107Z,1014.53
2016-08-08T08:53:51.093Z,1014.53
2016-08-08T08:55:04.274Z,1014.62
2016-08-08T08:56:17.241Z,1014.65
2016-08-08T08:57:30.427Z,1014.55
2016-08-08T08:58:43.410Z,1014.6
2016-08-08T08:59:56.391Z,1014.59
2016-08-08T09:01:09.373Z,1014.51
2016-08-08T09:02:22.356Z,1014.61
2016-08-08T09:03:35.333Z,1014.57
2016-08-08T09:04:48.306Z,1014.57
2016-08-08T09:06:01.484Z,1014.53
2016-08-08T09:07:14.477Z,1014.62
2016-08-08T09:08:27.453Z,1014.61
2016-08-08T09:09:40.425Z,1014.61
2016-08-08T09:10:53.606Z,1014.63
2016-08-08T09:12:06.633Z,1014.7
2016-08-08T09:14:30.743Z,1014.93
2016-08-08T09:15:43.728Z,1015.22
2016-08-08T09:16:56.708Z,1015.59
2016-08-08T09:18:09.692Z,1015.14
2016-08-08T09:19:22.673Z,1014.9
2016-08-08T09:20:35.659Z,1014.83
2016-08-08T09:21:48.639Z,1014.6
2016-08-08T09:23:01.624Z,1014.59
2016-08-08T09:24:14.603Z,1014.62
2016-08-08T09:25:27.585Z,1014.66
2016-08-08T09:26:40.559Z,1014.61
2016-08-08T09:27:53.544Z,1014.63
2016-08-08T09:29:06.519Z,1014.6
2016-08-08T09:30:19.498Z,1014.71
2016-08-08T09:31:32.482Z,1014.94
2016-08-08T09:32:45.465Z,1014.84
2016-08-08T09:33:58.445Z,1014.71
2016-08-08T09:35:11.425Z,1014.62
2016-08-08T09:36:24.414Z,1014.62
2016-08-08T09:37:37.587Z,1014.63
2016-08-08T09:38:50.774Z,1014.69
2016-08-08T09:40:03.746Z,1014.59
2016-08-08T09:41:16.722Z,1014.59
2016-08-08T09:42:29.695Z,1014.64
2016-08-08T09:43:42.675Z,1014.58
2016-08-08T09:44:55.662Z,1014.58
2016-08-08T09:46:08.638Z,1014.49
2016-08-08T09:47:21.825Z,1014.55
2016-08-08T09:48:35.000Z,1014.65
2016-08-08T09:49:47.971Z,1014.54
2016-08-08T09:51:00.948Z,1014.52
2016-08-08T09:52:14.121Z,1014.57
2016-08-08T09:53:27.092Z,1014.47
2016-08-08T09:54:40.067Z,1014.51
2016-08-08T09:55:53.258Z,1014.54
2016-08-08T09:57:06.221Z,1014.6
2016-08-08T09:58:19.191Z,1014.62
2016-08-08T09:59:30.776Z,1014.56
2016-08-08T10:00:43.745Z,1014.63
2016-08-08T10:01:56.717Z,1014.56
2016-08-08T10:03:09.697Z,1014.65
2016-08-08T10:04:22.671Z,1014.63
2016-08-08T10:05:35.871Z,1014.73
2016-08-08T10:06:48.843Z,1014.7
2016-08-08T10:08:01.835Z,1014.75
2016-08-08T10:09:15.010Z,1014.74
2016-08-08T10:10:27.994Z,1014.73
2016-08-08T10:11:40.963Z,1014.77
2016-08-08T10:12:53.944Z,1014.73
2016-08-08T10:14:06.926Z,1014.72
2016-08-08T10:15:20.100Z,1014.78
2016-08-08T10:16:33.078Z,1014.75
2016-08-08T10:17:46.049Z,1014.77
2016-08-08T10:18:59.024Z,1014.72
2016-08-08T10:20:12.001Z,1014.68
2016-08-08T10:21:24.988Z,1014.71
2016-08-08T10:22:37.973Z,1014.65
2016-08-08T10:23:50.953Z,1014.7
2016-08-08T10:25:04.135Z,1014.65
2016-08-08T10:26:17.520Z,1014.7
2016-08-08T10:27:30.703Z,1014.69
2016-08-08T10:28:43.693Z,1014.69
2016-08-08T10:29:56.874Z,1014.73
2016-08-08T10:31:10.052Z,1014.73
2016-08-08T10:32:23.038Z,1014.72
2016-08-08T10:33:36.011Z,1014.67
2016-08-08T10:34:48.988Z,1014.65
2016-08-08T10:36:01.989Z,1014.66
2016-08-08T10:37:14.962Z,1014.69
2016-08-08T10:38:27.929Z,1014.6
2016-08-08T10:39:40.903Z,1014.61
2016-08-08T10:40:53.877Z,1014.53
2016-08-08T10:42:06.853Z,1014.58
2016-08-08T10:43:19.840Z,1014.5
2016-08-08T10:44:32.362Z,1014.55
2016-08-08T10:45:45.349Z,1014.55
2016-08-08T10:46:58.332Z,1014.54
2016-08-08T10:48:11.508Z,1014.54
2016-08-08T10:49:24.681Z,1014.53
2016-08-08T10:50:37.674Z,1014.53
2016-08-08T10:51:50.644Z,1014.53
2016-08-08T10:53:03.625Z,1014.56
2016-08-08T10:54:16.593Z,1014.59
2016-08-08T10:55:29.589Z,1014.58
2016-08-08T10:56:42.568Z,1014.63
2016-08-08T10:57:55.543Z,1014.64
2016-08-08T10:59:08.517Z,1014.65
2016-08-08T11:00:21.493Z,1014.61
2016-08-08T11:01:34.472Z,1014.62
2016-08-08T11:02:47.460Z,1014.66
2016-08-08T11:04:00.437Z,1014.73
2016-08-08T11:05:13.405Z,1014.71
2016-08-08T11:06:26.396Z,1014.72
2016-08-08T11:07:39.401Z,1014.78
2016-08-08T11:08:52.382Z,1014.81
2016-08-08T11:10:05.358Z,1014.81
2016-08-08T11:11:18.332Z,1014.88
2016-08-08T11:12:31.765Z,1014.88
2016-08-08T11:13:44.742Z,1014.85
2016-08-08T11:14:55.860Z,1014.85
2016-08-08T11:16:08.837Z,1014.83
2016-08-08T11:17:22.013Z,1014.86
2016-08-08T11:18:35.007Z,1014.81
2016-08-08T11:19:47.976Z,1014.8
2016-08-08T11:21:00.960Z,1014.79
2016-08-08T11:22:13.927Z,1014.83
2016-08-08T11:23:26.905Z,1014.85
2016-08-08T11:24:39.878Z,1014.79
2016-08-08T11:25:52.852Z,1014.83
2016-08-08T11:27:05.834Z,1014.85
2016-08-08T11:28:18.817Z,1014.89
2016-08-08T11:29:31.796Z,1014.94
2016-08-08T11:30:44.770Z,1014.94
2016-08-08T11:31:58.147Z,1015.01
2016-08-08T11:33:11.325Z,1014.99
2016-08-08T11:34:24.314Z,1015
2016-08-08T11:35:37.303Z,1014.99
2016-08-08T11:36:50.277Z,1014.98
2016-08-08T11:38:03.454Z,1014.99
2016-08-08T11:39:16.456Z,1015.01
2016-08-08T11:40:29.421Z,1015.06
2016-08-08T11:41:42.420Z,1015.07
2016-08-08T11:42:55.398Z,1015.11
2016-08-08T11:44:08.367Z,1015.09
2016-08-08T11:45:21.342Z,1015.1
2016-08-08T11:46:34.326Z,1015.12
2016-08-08T11:47:47.295Z,1015.14
2016-08-08T11:49:00.274Z,1015.2
2016-08-08T11:50:13.255Z,1015.15
2016-08-08T11:51:26.226Z,1015.24
2016-08-08T11:52:39.402Z,1015.22
2016-08-08T11:53:52.373Z,1015.18
2016-08-08T11:55:05.353Z,1015.21
2016-08-08T11:56:18.339Z,1015.2
2016-08-08T11:57:31.303Z,1015.25
2016-08-08T11:58:44.476Z,1015.25
2016-08-08T11:59:57.456Z,1015.25
2016-08-08T12:01:10.427Z,1015.22
2016-08-08T12:02:23.594Z,1015.23
2016-08-08T12:03:36.576Z,1015.26
2016-08-08T12:04:49.549Z,1015.25
2016-08-08T12:06:02.527Z,1015.23
2016-08-08T12:07:15.503Z,1015.25
2016-08-08T12:08:28.476Z,1015.24
2016-08-08T12:09:41.443Z,1015.32
2016-08-08T12:10:54.411Z,1015.34
2016-08-08T12:12:07.583Z,1015.27
2016-08-08T12:13:20.561Z,1015.29
2016-08-08T12:14:33.534Z,1015.31
2016-08-08T12:15:46.512Z,1015.29
2016-08-08T12:16:59.497Z,1015.22
2016-08-08T12:18:12.470Z,1015.17
2016-08-08T12:19:25.449Z,1015.18
2016-08-08T12:20:38.431Z,1015.22
2016-08-08T12:21:51.618Z,1015.12
2016-08-08T12:23:04.589Z,1015.17
2016-08-08T12:24:17.565Z,1015.15
2016-08-08T12:25:30.744Z,1015.15
2016-08-08T12:26:43.710Z,1015.2
2016-08-08T12:27:56.689Z,1015.25
2016-08-08T12:29:09.659Z,1015.28
2016-08-08T12:30:20.784Z,1015.25
2016-08-08T12:31:33.965Z,1015.26
2016-08-08T12:32:46.940Z,1015.24
2016-08-08T12:34:00.129Z,1015.27
2016-08-08T12:35:13.111Z,1015.23
2016-08-08T12:36:26.110Z,1015.23
2016-08-08T12:37:39.093Z,1015.21
2016-08-08T12:38:52.271Z,1015.13
2016-08-08T12:40:05.252Z,1015.07
2016-08-08T12:41:18.230Z,1015.04
2016-08-08T12:42:31.208Z,1015
2016-08-08T12:43:44.189Z,1015.02
2016-08-08T12:44:57.176Z,1015.05
2016-08-08T12:46:10.162Z,1015.07
2016-08-08T12:47:23.340Z,1015.13
2016-08-08T12:48:36.322Z,1015.06
2016-08-08T12:49:49.512Z,1015.05
2016-08-08T12:51:02.490Z,1015.1
2016-08-08T12:52:15.471Z,1015.16
2016-08-08T12:53:28.458Z,1015.1
2016-08-08T12:54:41.436Z,1015.04
2016-08-08T12:55:54.421Z,1014.92
2016-08-08T12:57:07.399Z,1014.85
2016-08-08T12:58:20.575Z,1014.81
2016-08-08T12:59:33.553Z,1014.78
2016-08-08T13:00:46.524Z,1014.78
2016-08-08T13:01:59.506Z,1014.8
2016-08-08T13:03:12.481Z,1014.78
2016-08-08T13:04:25.459Z,1014.75
2016-08-08T13:05:38.440Z,1014.73
2016-08-08T13:06:51.415Z,1014.76
2016-08-08T13:08:04.409Z,1014.84
2016-08-08T13:09:17.378Z,1014.81
2016-08-08T13:10:30.370Z,1014.84
2016-08-08T13:11:43.347Z,1014.79
2016-08-08T13:12:56.749Z,1014.8
2016-08-08T13:14:09.740Z,1014.87
2016-08-08T13:15:21.798Z,1014.79
2016-08-08T13:16:34.774Z,1014.74
2016-08-08T13:17:47.956Z,1014.74
2016-08-08T13:19:00.935Z,1014.79
2016-08-08T13:20:14.120Z,1014.8
2016-08-08T13:21:27.102Z,1014.83
2016-08-08T13:22:40.292Z,1014.85
2016-08-08T13:23:53.274Z,1014.86
2016-08-08T13:25:06.245Z,1014.97
2016-08-08T13:26:19.245Z,1015
2016-08-08T13:27:32.234Z,1014.99
2016-08-08T13:28:45.413Z,1014.97
2016-08-08T13:29:58.598Z,1014.98
2016-08-08T13:31:11.784Z,1015.01
2016-08-08T13:32:24.768Z,1015.08
2016-08-08T13:33:37.745Z,1015.07
2016-08-08T13:34:50.730Z,1015.1
2016-08-08T13:36:03.910Z,1015.12
2016-08-08T13:37:17.105Z,1015.14
2016-08-08T13:38:30.085Z,1015.13
2016-08-08T13:39:43.064Z,1015.11
2016-08-08T13:40:56.037Z,1015.02
2016-08-08T13:42:09.222Z,1014.98
2016-08-08T13:43:22.607Z,1014.98
2016-08-08T13:44:35.602Z,1014.95
2016-08-08T13:45:48.580Z,1014.89
2016-08-08T13:47:01.569Z,1014.95
2016-08-08T13:48:14.552Z,1014.89
2016-08-08T13:49:27.527Z,1014.92
2016-08-08T13:50:40.715Z,1014.89
2016-08-08T13:51:53.692Z,1014.88
2016-08-08T13:53:06.673Z,1014.9
2016-08-08T13:54:19.653Z,1014.69
2016-08-08T13:55:32.629Z,1014.74
2016-08-08T13:56:45.611Z,1014.81
2016-08-08T13:57:58.594Z,1014.7
2016-08-08T13:59:11.586Z,1014.58
2016-08-08T14:00:23.655Z,1014.51
2016-08-08T14:01:36.629Z,1014.56
2016-08-08T14:02:49.605Z,1014.53
2016-08-08T14:04:02.580Z,1014.52
2016-08-08T14:05:15.576Z,1014.5
2016-08-08T14:06:28.763Z,1014.43
2016-08-08T14:07:41.746Z,1014.48
2016-08-08T14:08:54.732Z,1014.39
2016-08-08T14:10:07.710Z,1014.48
2016-08-08T14:11:20.696Z,1014.49
2016-08-08T14:12:33.675Z,1014.45
2016-08-08T14:13:46.659Z,1014.45
2016-08-08T14:14:59.638Z,1014.59
2016-08-08T14:16:12.822Z,1014.42
2016-08-08T14:17:25.809Z,1014.34
2016-08-08T14:18:38.788Z,1014.33
2016-08-08T14:19:51.766Z,1014.4
2016-08-08T14:21:04.960Z,1014.33
2016-08-08T14:22:17.954Z,1014.3
2016-08-08T14:23:30.938Z,1014.29
2016-08-08T14:24:43.910Z,1014.22
2016-08-08T14:25:56.891Z,1014.24
2016-08-08T14:27:10.088Z,1014.3
2016-08-08T14:28:23.068Z,1014.31
2016-08-08T14:29:36.047Z,1014.33
2016-08-08T14:30:49.039Z,1014.44
2016-08-08T14:32:02.025Z,1014.59
2016-08-08T14:33:15.008Z,1014.58
2016-08-08T14:34:27.988Z,1014.67
2016-08-08T14:35:40.974Z,1014.69
2016-08-08T14:36:53.961Z,1014.66
2016-08-08T14:38:06.949Z,1014.56
2016-08-08T14:39:19.931Z,1014.49
2016-08-08T14:40:32.913Z,1014.51
2016-08-08T14:41:45.892Z,1014.51
2016-08-08T14:42:59.078Z,1014.46
2016-08-08T14:44:12.055Z,1014.44
2016-08-08T14:45:25.252Z,1014.41
2016-08-08T14:46:38.235Z,1014.47
2016-08-08T14:47:51.219Z,1014.45
2016-08-08T14:49:04.204Z,1014.47
2016-08-08T14:50:17.389Z,1014.52
2016-08-08T14:51:30.585Z,1014.41
2016-08-08T14:52:43.571Z,1014.4
2016-08-08T14:53:56.567Z,1014.44
2016-08-08T14:55:09.551Z,1014.43
2016-08-08T14:56:22.555Z,1014.46
2016-08-08T14:57:35.538Z,1014.41
2016-08-08T14:58:48.524Z,1014.43